createdAt,value
2024-01-17T08:04:43.465Z,94791.81
2024-01-17T08:07:10.119Z,94792.28
2024-01-17T08:09:36.688Z,94775.75
2024-01-17T08:12:03.310Z,94782.19
2024-01-17T08:14:30.004Z,94762.44
2024-01-17T08:16:56.560Z,94763.91
2024-01-17T08:19:23.399Z,94760.34
2024-01-17T08:21:50.236Z,94759.94
2024-01-17T08:24:16.921Z,94768.28
2024-01-17T08:26:43.615Z,94778.00
2024-01-17T08:29:10.218Z,94778.88
2024-01-17T08:31:36.873Z,94779.97
2024-01-17T08:34:03.714Z,94770.84
2024-01-17T08:36:30.482Z,94756.66
2024-01-17T08:38:57.140Z,94773.25
2024-01-17T08:41:23.761Z,94772.59
2024-01-17T08:43:50.366Z,94772.00
2024-01-17T08:46:17.007Z,94746.00
2024-01-17T08:48:43.785Z,94761.84
2024-01-17T08:51:10.552Z,94758.94
2024-01-17T08:53:37.198Z,94770.69
2024-01-17T08:56:03.850Z,94780.66
2024-01-17T08:58:30.487Z,94772.06
2024-01-17T09:00:57.063Z,94775.50
2024-01-17T09:03:23.816Z,94764.41
2024-01-17T09:05:50.579Z,94764.28
2024-01-17T09:08:17.423Z,94756.38
2024-01-17T09:10:44.149Z,94749.84
2024-01-17T09:13:10.827Z,94757.63
2024-01-17T09:15:37.374Z,94755.84
2024-01-17T09:18:04.142Z,94769.22
2024-01-17T09:20:30.804Z,94762.97
2024-01-17T09:23:00.453Z,94755.25
2024-01-17T09:25:27.009Z,94754.34
2024-01-17T09:27:53.646Z,94755.41
2024-01-17T09:30:20.295Z,94755.41
2024-01-17T09:32:46.972Z,94746.25
2024-01-17T09:35:13.604Z,94746.13
2024-01-17T09:37:40.183Z,94736.72
2024-01-17T09:40:06.785Z,94739.50
2024-01-17T09:42:33.380Z,94736.97
2024-01-17T09:45:00.111Z,94742.97
2024-01-17T09:47:26.816Z,94752.28
2024-01-17T09:49:53.396Z,94744.69
2024-01-17T09:52:19.984Z,94750.59
2024-01-17T09:54:46.578Z,94741.41
2024-01-17T09:57:13.312Z,94731.75
2024-01-17T09:59:40.023Z,94726.50
2024-01-17T10:02:06.641Z,94735.38
2024-01-17T10:04:33.242Z,94734.34
2024-01-17T10:06:59.996Z,94737.53
2024-01-17T10:09:26.669Z,94747.75
2024-01-17T10:11:55.029Z,94745.47
2024-01-17T10:14:22.084Z,94735.91
2024-01-17T10:16:48.678Z,94734.44
2024-01-17T10:19:15.533Z,94739.25
2024-01-17T10:21:42.202Z,94745.81
2024-01-17T10:24:08.813Z,94739.47
2024-01-17T10:26:35.422Z,94752.38
2024-01-17T10:29:02.082Z,94732.16
2024-01-17T10:31:28.662Z,94729.78
2024-01-17T10:33:55.441Z,94739.41
2024-01-17T10:36:22.224Z,94732.84
2024-01-17T10:38:48.907Z,94745.88
2024-01-17T10:41:15.560Z,94718.94
2024-01-17T10:43:42.185Z,94717.13
2024-01-17T10:46:08.745Z,94700.84
